createdAt,value
2023-04-01T00:01:15.997Z,23.90
2023-04-01T00:03:44.878Z,23.90
2023-04-01T00:06:15.642Z,23.90
2023-04-01T00:08:43.797Z,23.90
2023-04-01T00:11:11.932Z,23.80
2023-04-01T00:13:39.714Z,23.80
2023-04-01T00:16:19.852Z,23.90
2023-04-01T00:18:51.191Z,23.90
2023-04-01T00:21:21.619Z,23.90
2023-04-01T00:23:50.860Z,23.80
2023-04-01T00:26:22.086Z,23.80
2023-04-01T00:28:50.735Z,23.80
2023-04-01T00:31:18.965Z,23.80
2023-04-01T00:33:46.915Z,23.90
2023-04-01T00:36:17.305Z,23.80
2023-04-01T00:38:45.848Z,23.80
2023-04-01T00:41:16.785Z,23.90
2023-04-01T00:43:47.105Z,23.80
2023-04-01T00:46:15.592Z,23.80
2023-04-01T00:48:49.566Z,23.80
2023-04-01T00:51:21.440Z,23.80
2023-04-01T00:53:52.004Z,23.80
2023-04-01T00:56:35.457Z,23.80
2023-04-01T00:59:09.419Z,23.80
2023-04-01T01:01:37.821Z,23.80
2023-04-01T01:04:05.974Z,23.80
2023-04-01T01:07:08.534Z,23.80
2023-04-01T01:09:45.121Z,23.80
2023-04-01T01:12:33.047Z,23.80
2023-04-01T01:15:27.269Z,23.80
2023-04-01T01:17:57.864Z,23.80
2023-04-01T01:20:49.594Z,23.80
2023-04-01T01:23:44.528Z,23.80
2023-04-01T01:26:39.760Z,23.80
2023-04-01T01:29:25.650Z,23.80
2023-04-01T01:32:12.697Z,23.80
2023-04-01T01:34:56.782Z,23.80
2023-04-01T01:37:27.276Z,23.80
2023-04-01T01:40:01.204Z,23.80
2023-04-01T01:42:33.618Z,23.80
2023-04-01T01:45:03.752Z,23.80
2023-04-01T01:47:32.378Z,23.80
2023-04-01T01:50:02.341Z,23.80
2023-04-01T01:52:30.934Z,23.80
2023-04-01T01:54:59.643Z,23.70
2023-04-01T01:57:37.977Z,23.80
2023-04-01T02:00:15.648Z,23.80
2023-04-01T02:02:48.630Z,23.80
2023-04-01T02:05:20.671Z,23.80
2023-04-01T02:07:57.018Z,23.80
2023-04-01T02:10:28.207Z,23.70
2023-04-01T02:13:02.423Z,23.80
2023-04-01T02:15:34.646Z,23.70
2023-04-01T02:18:03.382Z,23.70
2023-04-01T02:20:31.678Z,23.70
2023-04-01T02:23:00.858Z,23.80
2023-04-01T02:25:34.924Z,23.70
2023-04-01T02:28:05.185Z,23.70
2023-04-01T02:30:37.015Z,23.70
2023-04-01T02:33:06.531Z,23.80
2023-04-01T02:35:38.026Z,23.70
2023-04-01T02:38:07.212Z,23.70
2023-04-01T02:40:50.891Z,23.70
2023-04-01T02:43:20.037Z,23.70
2023-04-01T02:45:47.808Z,23.80
2023-04-01T02:48:15.813Z,23.70
2023-04-01T02:50:43.499Z,23.70
2023-04-01T02:53:12.393Z,23.70
2023-04-01T02:55:40.424Z,23.70
2023-04-01T02:58:08.244Z,23.70
2023-04-01T03:00:36.219Z,23.70
2023-04-01T03:03:04.229Z,23.70
2023-04-01T03:10:01.464Z,23.70
2023-04-01T03:12:29.250Z,23.60
2023-04-01T03:14:57.165Z,23.70
2023-04-01T03:17:39.834Z,23.70
2023-04-01T03:20:11.396Z,23.60
2023-04-01T03:22:42.691Z,23.60
2023-04-01T03:25:11.640Z,23.60
2023-04-01T03:27:39.981Z,23.70
2023-04-01T03:30:10.734Z,23.60
2023-04-01T03:32:47.198Z,23.60
2023-04-01T03:35:15.015Z,23.70
2023-04-01T03:37:42.892Z,23.70
2023-04-01T03:40:11.896Z,23.70
2023-04-01T03:42:39.744Z,23.70
2023-04-01T03:45:07.872Z,23.60
2023-04-01T03:47:36.091Z,23.70
2023-04-01T03:50:04.098Z,23.70
2023-04-01T03:52:32.437Z,23.70
2023-04-01T03:55:00.418Z,23.70
2023-04-01T03:57:28.486Z,23.60
2023-04-01T04:00:00.980Z,23.60
2023-04-01T04:02:29.115Z,23.60
2023-04-01T04:04:57.087Z,23.60
2023-04-01T04:07:25.361Z,23.60
2023-04-01T04:10:07.279Z,23.60
2023-04-01T04:12:35.382Z,23.60
2023-04-01T04:15:03.231Z,23.60
2023-04-01T04:17:31.008Z,23.60
2023-04-01T04:19:58.881Z,23.60
2023-04-01T04:22:26.993Z,23.60
2023-04-01T04:24:55.562Z,23.60
2023-04-01T04:27:23.479Z,23.60
2023-04-01T04:30:07.636Z,23.60
2023-04-01T04:32:35.850Z,23.60
2023-04-01T04:35:04.622Z,23.50
2023-04-01T04:37:32.413Z,23.60
2023-04-01T04:40:01.052Z,23.60
2023-04-01T04:42:29.429Z,23.60
2023-04-01T04:45:02.068Z,23.60
2023-04-01T04:47:30.201Z,23.60
2023-04-01T04:50:00.877Z,23.60
2023-04-01T04:52:28.662Z,23.50
2023-04-01T04:54:56.560Z,23.60
2023-04-01T04:57:24.365Z,23.60
2023-04-01T04:59:56.064Z,23.60
2023-04-01T05:02:42.336Z,23.60
2023-04-01T05:05:11.483Z,23.60
2023-04-01T05:07:39.333Z,23.60
2023-04-01T05:10:07.828Z,23.60
2023-04-01T05:12:38.498Z,23.60
2023-04-01T05:15:09.289Z,23.50
2023-04-01T05:17:37.529Z,23.60
2023-04-01T05:20:06.490Z,23.60
2023-04-01T05:22:34.232Z,23.60
2023-04-01T05:25:02.142Z,23.60
2023-04-01T05:27:30.963Z,23.60
2023-04-01T05:29:59.503Z,23.60
2023-04-01T05:32:47.656Z,23.60
2023-04-01T05:35:15.543Z,23.60
2023-04-01T05:37:43.484Z,23.50
2023-04-01T05:40:11.695Z,23.60
2023-04-01T05:42:39.965Z,23.60
2023-04-01T05:45:08.584Z,23.60
2023-04-01T05:48:02.763Z,23.60
2023-04-01T05:50:34.929Z,23.50
2023-04-01T05:53:03.854Z,23.50
2023-04-01T05:55:32.057Z,23.50
2023-04-01T05:58:00.106Z,23.50
2023-04-01T06:00:29.342Z,23.60
2023-04-01T06:03:02.612Z,23.60
2023-04-01T06:05:36.756Z,23.60
2023-04-01T06:08:20.324Z,23.60
2023-04-01T06:10:54.879Z,23.60
2023-04-01T06:13:28.462Z,23.60
2023-04-01T06:16:24.139Z,23.60
2023-04-01T06:19:22.450Z,23.60
2023-04-01T06:22:15.092Z,23.60
2023-04-01T06:24:46.041Z,23.50
2023-04-01T06:27:32.370Z,23.60
2023-04-01T06:30:20.468Z,23.60
2023-04-01T06:33:08.786Z,23.60
2023-04-01T06:36:35.364Z,23.60
2023-04-01T06:39:30.685Z,23.60
2023-04-01T06:42:07.342Z,23.60
2023-04-01T06:45:22.013Z,23.60
2023-04-01T06:48:53.947Z,23.60
2023-04-01T06:52:11.626Z,23.60
2023-04-01T06:55:15.754Z,23.60
2023-04-01T06:58:36.765Z,23.60
2023-04-01T07:01:09.360Z,23.60
2023-04-01T07:03:42.552Z,23.60
2023-04-01T07:06:21.830Z,23.60
2023-04-01T07:08:58.058Z,23.60
2023-04-01T07:11:31.905Z,23.60
2023-04-01T07:14:22.151Z,23.60
2023-04-01T07:17:01.268Z,23.60
2023-04-01T07:19:37.580Z,23.60
2023-04-01T07:22:34.640Z,23.60
2023-04-01T07:25:32.370Z,23.60
2023-04-01T07:28:38.752Z,23.60
2023-04-01T07:31:44.339Z,23.60
2023-04-01T07:34:28.499Z,23.60
2023-04-01T07:37:04.084Z,23.60
2023-04-01T07:40:03.251Z,23.70
2023-04-01T07:42:55.564Z,23.60
2023-04-01T07:45:39.446Z,23.60
2023-04-01T07:48:34.193Z,23.60
2023-04-01T07:51:40.026Z,23.60
2023-04-01T07:54:17.863Z,23.60
2023-04-01T07:56:50.295Z,23.60
2023-04-01T07:59:41.204Z,23.60
2023-04-01T08:02:45.579Z,23.70
2023-04-01T08:05:34.363Z,23.70
2023-04-01T08:08:33.009Z,23.60
2023-04-01T08:11:43.807Z,23.60
2023-04-01T08:15:01.689Z,23.60
2023-04-01T08:18:28.141Z,23.70
2023-04-01T08:21:24.924Z,23.70
2023-04-01T08:23:57.639Z,23.60
2023-04-01T08:26:37.344Z,23.70
2023-04-01T08:29:19.916Z,23.70
2023-04-01T08:32:16.331Z,23.70
2023-04-01T08:34:48.563Z,23.70
2023-04-01T08:37:34.027Z,23.70
2023-04-01T08:40:30.901Z,23.70
2023-04-01T08:43:20.703Z,23.60
2023-04-01T08:46:10.482Z,23.70
2023-04-01T08:49:03.565Z,23.70
2023-04-01T08:52:20.758Z,23.70
2023-04-01T08:55:16.400Z,23.70
2023-04-01T08:58:47.768Z,23.70
2023-04-01T09:01:52.374Z,23.70
2023-04-01T09:04:59.540Z,23.70
2023-04-01T09:08:06.062Z,23.70
2023-04-01T09:10:44.724Z,23.70
2023-04-01T09:13:49.030Z,23.70
2023-04-01T09:16:44.245Z,23.70
2023-04-01T09:19:49.861Z,23.70
2023-04-01T09:22:38.841Z,23.70
2023-04-01T09:25:21.464Z,23.70
2023-04-01T09:28:03.430Z,23.70
2023-04-01T09:31:02.762Z,23.80
2023-04-01T09:34:14.789Z,23.70
2023-04-01T09:38:14.187Z,23.70
2023-04-01T09:40:49.638Z,23.70
2023-04-01T09:43:35.510Z,23.70
2023-04-01T09:46:20.628Z,23.70
2023-04-01T09:49:06.749Z,23.70
2023-04-01T09:51:52.916Z,23.70
2023-04-01T09:55:01.388Z,23.70
2023-04-01T09:57:42.869Z,23.70
2023-04-01T10:00:53.735Z,23.70
2023-04-01T10:03:52.947Z,23.70
2023-04-01T10:06:46.025Z,23.70
2023-04-01T10:09:29.174Z,23.80
2023-04-01T10:12:22.068Z,23.80
2023-04-01T10:15:27.308Z,23.70
2023-04-01T10:18:01.334Z,23.70
2023-04-01T10:20:56.924Z,23.70
2023-04-01T10:23:36.344Z,23.80
2023-04-01T10:26:22.709Z,23.80
2023-04-01T10:29:18.962Z,23.80
2023-04-01T10:32:05.203Z,23.80
2023-04-01T10:34:52.041Z,23.80
2023-04-01T10:37:44.401Z,23.80
2023-04-01T10:40:36.952Z,23.80
2023-04-01T10:44:20.374Z,23.80
2023-04-01T10:47:13.263Z,23.80
2023-04-01T10:49:50.208Z,23.80
2023-04-01T10:52:58.592Z,23.80
2023-04-01T10:56:19.739Z,23.80
2023-04-01T11:00:02.786Z,23.80
2023-04-01T11:03:41.822Z,23.80
2023-04-01T11:06:58.603Z,23.80
2023-04-01T11:09:55.706Z,23.80
2023-04-01T11:13:02.905Z,23.80
2023-04-01T11:16:00.561Z,23.80
2023-04-01T11:18:45.869Z,23.80
2023-04-01T11:21:32.462Z,23.80
2023-04-01T11:24:36.141Z,23.80
2023-04-01T11:27:28.881Z,23.80
2023-04-01T11:30:08.532Z,23.80
2023-04-01T11:32:51.649Z,23.80
2023-04-01T11:35:38.082Z,23.80
2023-04-01T11:38:26.340Z,23.80
2023-04-01T11:41:31.604Z,23.80
2023-04-01T11:44:30.981Z,23.80
2023-04-01T11:47:25.897Z,23.90
2023-04-01T11:50:17.765Z,23.90
2023-04-01T11:53:26.659Z,23.90
2023-04-01T11:56:14.611Z,24.00
2023-04-01T11:58:57.660Z,24.10
2023-04-01T12:01:46.505Z,24.10
2023-04-01T12:04:36.406Z,24.10
2023-04-01T12:07:13.244Z,24.20
2023-04-01T12:10:18.261Z,24.20
2023-04-01T12:13:10.364Z,24.30
2023-04-01T12:15:44.221Z,24.30
2023-04-01T12:18:30.564Z,24.30
2023-04-01T12:21:44.982Z,24.30
2023-04-01T12:24:49.320Z,24.40
2023-04-01T12:27:38.702Z,24.40
2023-04-01T12:30:21.701Z,24.40
2023-04-01T12:33:15.445Z,24.40
2023-04-01T12:36:02.310Z,24.40
2023-04-01T12:38:45.402Z,24.40
2023-04-01T12:41:39.421Z,24.40
2023-04-01T12:44:28.302Z,24.30
2023-04-01T12:47:05.524Z,24.30
2023-04-01T12:49:56.811Z,24.30
2023-04-01T12:53:07.642Z,24.30
2023-04-01T12:55:54.562Z,24.30
2023-04-01T12:58:43.511Z,24.40
2023-04-01T13:01:33.076Z,24.40
2023-04-01T13:04:25.343Z,24.50
2023-04-01T13:07:18.303Z,24.40
2023-04-01T13:10:04.239Z,24.30
2023-04-01T13:12:49.883Z,24.30
2023-04-01T13:15:32.802Z,24.30
2023-04-01T13:18:22.249Z,24.40
2023-04-01T13:21:03.982Z,24.50
2023-04-01T13:23:47.801Z,24.50
2023-04-01T13:26:28.021Z,24.60
2023-04-01T13:29:24.758Z,24.50
2023-04-01T13:32:12.270Z,24.50
2023-04-01T13:34:53.703Z,24.50
2023-04-01T13:37:27.365Z,24.50
2023-04-01T13:39:58.340Z,24.50
2023-04-01T13:42:36.489Z,24.60
2023-04-01T13:45:15.477Z,24.70
2023-04-01T13:48:02.353Z,24.70
2023-04-01T13:50:45.382Z,24.70
2023-04-01T13:53:22.757Z,24.80
2023-04-01T13:55:50.900Z,24.80
2023-04-01T13:59:07.079Z,24.80
2023-04-01T14:02:12.199Z,24.80
2023-04-01T14:05:10.664Z,24.80
2023-04-01T14:07:52.383Z,24.90
2023-04-01T14:10:33.721Z,24.90
2023-04-01T14:13:28.882Z,24.90
2023-04-01T14:16:15.645Z,24.90
2023-04-01T14:19:26.562Z,24.90
2023-04-01T14:22:11.599Z,24.80
2023-04-01T14:24:58.247Z,24.80
2023-04-01T14:27:48.488Z,24.80
2023-04-01T14:30:19.116Z,24.80
2023-04-01T14:33:14.038Z,24.80
2023-04-01T14:36:20.148Z,24.80
2023-04-01T14:38:48.038Z,24.80
2023-04-01T14:41:29.084Z,24.80
2023-04-01T14:44:06.662Z,24.80
2023-04-01T14:47:23.230Z,24.80
2023-04-01T14:49:55.261Z,24.80
2023-04-01T14:52:30.943Z,24.80
2023-04-01T14:55:00.781Z,24.80
2023-04-01T14:57:33.266Z,24.70
2023-04-01T15:00:10.161Z,24.70
2023-04-01T15:03:00.223Z,24.70
2023-04-01T15:05:43.621Z,24.70
2023-04-01T15:08:23.048Z,24.70
2023-04-01T15:10:57.938Z,24.70
2023-04-01T15:13:31.542Z,24.70
2023-04-01T15:16:14.869Z,24.70
2023-04-01T15:18:54.480Z,24.60
2023-04-01T15:21:59.350Z,24.60
2023-04-01T15:24:36.225Z,24.60
2023-04-01T15:27:19.445Z,24.50
2023-04-01T15:30:05.841Z,24.60
2023-04-01T15:33:04.008Z,24.50
2023-04-01T15:35:44.089Z,24.50
2023-04-01T15:38:26.176Z,24.50
2023-04-01T15:41:18.123Z,24.50
2023-04-01T15:43:53.301Z,24.50
2023-04-01T15:46:53.906Z,24.50
2023-04-01T15:49:45.687Z,24.50
2023-04-01T15:52:23.969Z,24.50
2023-04-01T15:55:15.044Z,24.50
2023-04-01T15:58:07.065Z,24.50
2023-04-01T16:00:59.941Z,24.50
2023-04-01T16:03:42.620Z,24.50
2023-04-01T16:06:29.410Z,24.40
2023-04-01T16:09:04.800Z,24.40
2023-04-01T16:12:07.805Z,24.40
2023-04-01T16:15:26.037Z,24.40
2023-04-01T16:18:30.608Z,24.40
2023-04-01T16:21:13.244Z,24.40
2023-04-01T16:23:44.201Z,24.40
2023-04-01T16:26:24.139Z,24.40
2023-04-01T16:28:55.785Z,24.30
2023-04-01T16:31:49.018Z,24.30
2023-04-01T16:34:37.518Z,24.40
2023-04-01T16:37:14.161Z,24.30
2023-04-01T16:40:02.519Z,24.30
2023-04-01T16:42:30.679Z,24.30
2023-04-01T16:45:26.196Z,24.30
2023-04-01T16:48:17.437Z,24.30
2023-04-01T16:51:01.275Z,24.30
2023-04-01T16:53:49.481Z,24.30
2023-04-01T16:56:28.602Z,24.30
2023-04-01T16:59:02.649Z,24.30
2023-04-01T17:01:41.975Z,24.30
2023-04-01T17:04:23.087Z,24.30
2023-04-01T17:07:13.604Z,24.30
2023-04-01T17:09:47.278Z,24.30
2023-04-01T17:12:57.082Z,24.30
2023-04-01T17:15:47.860Z,24.30
2023-04-01T17:18:54.016Z,24.30
2023-04-01T17:22:02.425Z,24.30
2023-04-01T17:24:48.572Z,24.30
2023-04-01T17:27:19.293Z,24.30
2023-04-01T17:29:59.124Z,24.30
2023-04-01T17:32:58.792Z,24.30
2023-04-01T17:36:00.224Z,24.20
2023-04-01T17:38:40.009Z,24.20
2023-04-01T17:41:26.222Z,24.30
2023-04-01T17:44:03.342Z,24.30
2023-04-01T17:46:46.385Z,24.20
2023-04-01T17:49:41.099Z,24.20
2023-04-01T17:52:38.819Z,24.10
2023-04-01T17:55:34.565Z,24.20
2023-04-01T17:58:30.161Z,24.20
2023-04-01T18:01:13.859Z,24.20
2023-04-01T18:04:12.464Z,24.20
2023-04-01T18:06:43.285Z,24.20
2023-04-01T18:09:21.582Z,24.10
2023-04-01T18:12:01.626Z,24.10
2023-04-01T18:14:42.987Z,24.10
2023-04-01T18:17:27.050Z,24.20
2023-04-01T18:19:54.947Z,24.10
2023-04-01T18:22:22.810Z,24.20
2023-04-01T18:25:06.247Z,24.10
2023-04-01T18:27:51.666Z,24.10
2023-04-01T18:30:32.939Z,24.10
2023-04-01T18:33:46.035Z,24.10
2023-04-01T18:36:22.998Z,24.10
2023-04-01T18:39:03.475Z,24.00
2023-04-01T18:41:57.647Z,24.10
2023-04-01T18:44:50.188Z,24.00
2023-04-01T18:47:44.636Z,24.00
2023-04-01T18:50:29.729Z,24.10
2023-04-01T18:53:25.584Z,24.00
2023-04-01T18:56:01.656Z,24.00
2023-04-01T18:58:43.811Z,24.00
2023-04-01T19:01:30.341Z,24.00
2023-04-01T19:04:13.796Z,24.00
2023-04-01T19:06:48.744Z,24.00
2023-04-01T19:09:45.765Z,24.00
2023-04-01T19:12:33.164Z,24.00
2023-04-01T19:15:34.977Z,24.00
2023-04-01T19:18:37.230Z,24.00
2023-04-01T19:21:34.358Z,23.90
2023-04-01T19:24:17.556Z,24.00
2023-04-01T19:27:08.227Z,23.90
2023-04-01T19:29:39.067Z,23.90
2023-04-01T19:32:44.165Z,23.90
2023-04-01T19:35:33.590Z,23.90
2023-04-01T19:38:13.459Z,23.90
2023-04-01T19:40:53.272Z,23.90
2023-04-01T19:43:38.091Z,23.90
2023-04-01T19:46:20.729Z,23.90
2023-04-01T19:49:25.468Z,23.90
2023-04-01T19:51:56.209Z,23.90
2023-04-01T19:54:34.723Z,23.90
2023-04-01T19:57:21.676Z,23.90
2023-04-01T19:59:53.053Z,23.90
2023-04-01T20:02:31.983Z,23.90
2023-04-01T20:05:32.817Z,23.90
2023-04-01T20:08:25.381Z,23.90
2023-04-01T20:11:19.370Z,23.80
2023-04-01T20:14:10.970Z,23.90
2023-04-01T20:16:53.734Z,23.90
2023-04-01T20:20:00.276Z,23.80
2023-04-01T20:22:46.090Z,23.80
2023-04-01T20:25:25.044Z,23.80
2023-04-01T20:28:14.490Z,23.90
2023-04-01T20:31:00.796Z,23.80
2023-04-01T20:33:53.343Z,23.90
2023-04-01T20:36:34.479Z,23.80
2023-04-01T20:39:32.345Z,23.80
2023-04-01T20:42:30.821Z,23.80
2023-04-01T20:45:17.100Z,23.80
2023-04-01T20:47:50.798Z,23.80
2023-04-01T20:50:21.591Z,23.80
2023-04-01T20:53:03.587Z,23.80
2023-04-01T20:55:59.255Z,23.80
2023-04-01T20:58:51.426Z,23.80
2023-04-01T21:02:09.170Z,23.80
2023-04-01T21:04:43.231Z,23.80
2023-04-01T21:07:43.793Z,23.80
2023-04-01T21:10:20.357Z,23.80
2023-04-01T21:13:02.050Z,23.80
2023-04-01T21:15:44.133Z,23.80
2023-04-01T21:18:37.725Z,23.80
2023-04-01T21:21:38.698Z,23.80
2023-04-01T21:24:12.359Z,23.80
2023-04-01T21:26:52.450Z,23.80
2023-04-01T21:29:47.596Z,23.80
2023-04-01T21:32:21.527Z,23.80
2023-04-01T21:35:10.162Z,23.80
2023-04-01T21:37:51.214Z,23.70
2023-04-01T21:40:34.261Z,23.80
2023-04-01T21:43:04.987Z,23.70
2023-04-01T21:46:06.876Z,23.70
2023-04-01T21:48:45.420Z,23.80
2023-04-01T21:51:31.104Z,23.80
2023-04-01T21:54:12.940Z,23.80
2023-04-01T21:57:02.525Z,23.80
2023-04-01T21:59:45.226Z,23.70
2023-04-01T22:02:37.876Z,23.70
2023-04-01T22:05:19.482Z,23.70
2023-04-01T22:08:02.436Z,23.70
2023-04-01T22:11:10.724Z,23.70
2023-04-01T22:13:50.587Z,23.70
2023-04-01T22:16:30.563Z,23.70
2023-04-01T22:19:29.747Z,23.70
2023-04-01T22:22:32.316Z,23.70
2023-04-01T22:25:27.357Z,23.70
2023-04-01T22:28:17.188Z,23.70
2023-04-01T22:30:58.479Z,23.70
2023-04-01T22:33:34.195Z,23.70
2023-04-01T22:36:08.501Z,23.60
2023-04-01T22:39:07.154Z,23.70
2023-04-01T22:41:57.995Z,23.70
2023-04-01T22:45:01.386Z,23.70
2023-04-01T22:47:40.320Z,23.70
2023-04-01T22:50:25.533Z,23.70
2023-04-01T22:53:19.637Z,23.70
2023-04-01T22:55:53.626Z,23.70
2023-04-01T22:58:37.862Z,23.70
2023-04-01T23:01:18.009Z,23.70
2023-04-01T23:03:49.967Z,23.70
2023-04-01T23:06:27.415Z,23.70
2023-04-01T23:09:17.721Z,23.70
2023-04-01T23:11:47.787Z,23.70
2023-04-01T23:14:21.765Z,23.70
2023-04-01T23:16:56.991Z,23.60
2023-04-01T23:19:29.175Z,23.70
2023-04-01T23:22:18.275Z,23.70
2023-04-01T23:25:07.409Z,23.70
2023-04-01T23:27:42.097Z,23.70
2023-04-01T23:30:40.987Z,23.70
2023-04-01T23:33:18.924Z,23.70
2023-04-01T23:36:38.345Z,23.60
2023-04-01T23:39:15.179Z,23.70
2023-04-01T23:41:42.991Z,23.60
2023-04-01T23:44:14.592Z,23.70
2023-04-01T23:46:47.598Z,23.60
2023-04-01T23:49:53.872Z,23.70
2023-04-01T23:52:28.942Z,23.60
2023-04-01T23:55:01.452Z,23.60
2023-04-01T23:57:32.817Z,23.70
